Time;durP1;ratioP1;P1;durP2;ratioP2;P2;SDS_P1;SDS_P2;PMS_P1;PMS_P2;Temp;Humidity;BMP_temperature;BMP_pressure;BME280_temperature;BME280_humidity;BME280_pressure;Samples;Min_cycle;Max_cycle;Signal;HPM_P1;HPM_P2
2022/10/03 00:01:37;;;;;;;;;34.75;31.50;;;;;26.87;100.00;101575.38;5075549;27;51165;-46
2022/10/03 00:04:40;;;;;;;;;44.50;34.50;;;;;26.86;100.00;101565.41;5076757;27;51259;-46
2022/10/03 00:07:44;;;;;;;;;48.00;38.00;;;;;26.83;100.00;101568.31;5076665;27;51087;-47
2022/10/03 00:10:34;;;;;;;;;51.50;40.25;;;;;26.82;100.00;101569.31;5076833;27;51193;-46
2022/10/03 00:13:39;;;;;;;;;45.75;37.50;;;;;26.79;100.00;101571.31;5079800;27;51104;-45
2022/10/03 00:16:48;;;;;;;;;49.00;39.00;;;;;26.76;100.00;101567.78;5077831;27;51213;-46
2022/10/03 00:19:54;;;;;;;;;38.25;34.75;;;;;26.75;100.00;101559.69;5077178;27;51103;-46
2022/10/03 00:22:56;;;;;;;;;43.50;34.25;;;;;26.76;100.00;101554.16;5076492;27;51534;-46
2022/10/03 00:25:56;;;;;;;;;31.25;28.75;;;;;26.73;100.00;101548.84;5078480;27;51620;-47
2022/10/03 00:28:54;;;;;;;;;28.00;24.75;;;;;26.72;100.00;101546.22;5077993;27;51184;-47
2022/10/03 00:32:25;;;;;;;;;29.00;23.50;;;;;26.73;100.00;101550.69;5079261;27;51130;-46
2022/10/03 00:35:40;;;;;;;;;24.25;19.50;;;;;26.72;100.00;101548.97;5072325;27;51134;-47
2022/10/03 00:38:46;;;;;;;;;24.75;21.75;;;;;26.70;100.00;101538.13;5078164;27;51152;-45
2022/10/03 00:42:11;;;;;;;;;22.50;21.00;;;;;26.70;100.00;101553.63;5078815;27;51389;-45
2022/10/03 00:45:11;;;;;;;;;25.50;19.25;;;;;26.71;100.00;101545.34;5078641;27;51037;-48
2022/10/03 00:48:14;;;;;;;;;19.25;17.25;;;;;26.68;100.00;101545.50;5077342;27;51571;-46
2022/10/03 00:51:17;;;;;;;;;27.25;21.50;;;;;26.69;100.00;101546.41;5077322;27;51162;-45
2022/10/03 00:54:17;;;;;;;;;19.75;19.50;;;;;26.67;100.00;101541.00;5078631;27;51239;-49
2022/10/03 00:57:12;;;;;;;;;19.50;19.50;;;;;26.66;100.00;101535.66;5078564;27;51635;-45
2022/10/03 01:00:23;;;;;;;;;19.25;18.00;;;;;26.65;100.00;101528.44;5078431;27;51381;-45
2022/10/03 01:03:18;;;;;;;;;21.25;19.50;;;;;26.62;100.00;101518.59;5077036;27;51185;-47
2022/10/03 01:06:15;;;;;;;;;21.50;17.00;;;;;26.61;100.00;101514.97;5078297;27;51364;-46
2022/10/03 01:09:42;;;;;;;;;18.50;18.50;;;;;26.60;100.00;101513.22;5076321;27;51067;-47
2022/10/03 01:12:48;;;;;;;;;18.25;17.50;;;;;26.59;100.00;101503.28;5078599;27;51238;-45
2022/10/03 01:16:03;;;;;;;;;20.75;17.50;;;;;26.59;100.00;101494.19;5078036;28;51131;-47
2022/10/03 01:19:22;;;;;;;;;21.50;18.25;;;;;26.59;100.00;101499.66;5074708;27;51146;-47
2022/10/03 01:22:38;;;;;;;;;20.25;18.25;;;;;26.56;100.00;101495.25;5073369;27;51103;-47
2022/10/03 01:25:34;;;;;;;;;20.25;20.00;;;;;26.54;100.00;101493.59;5051798;27;51070;-46
2022/10/03 01:32:14;;;;;;;;;20.00;19.25;;;;;26.53;100.00;101489.97;5075001;27;51365;-45
2022/10/03 01:35:10;;;;;;;;;19.25;15.00;;;;;26.54;100.00;101490.88;5074517;27;51162;-45
2022/10/03 01:38:26;;;;;;;;;27.75;23.50;;;;;26.54;100.00;101499.94;5070664;27;51587;-47
2022/10/03 01:41:59;;;;;;;;;21.75;19.00;;;;;26.54;100.00;101496.34;5074907;27;51089;-47
2022/10/03 01:44:55;;;;;;;;;20.00;20.00;;;;;26.52;100.00;101503.72;5065353;28;51613;-46
2022/10/03 01:47:48;;;;;;;;;23.25;20.75;;;;;26.51;100.00;101499.22;5075830;27;51198;-45
2022/10/03 01:50:50;;;;;;;;;22.75;19.75;;;;;26.50;100.00;101503.81;5075694;27;51569;-46
2022/10/03 01:53:45;;;;;;;;;24.00;19.00;;;;;26.46;100.00;101499.50;5075888;27;51168;-46
2022/10/03 01:56:35;;;;;;;;;25.25;20.25;;;;;26.50;100.00;101503.81;5076228;27;51129;-45
2022/10/03 01:59:54;;;;;;;;;19.50;17.25;;;;;26.50;100.00;101509.28;5079365;27;51023;-47
2022/10/03 02:02:49;;;;;;;;;19.75;17.75;;;;;26.49;100.00;101504.78;5066987;27;52202;-49
2022/10/03 02:05:46;;;;;;;;;17.50;16.75;;;;;26.49;100.00;101501.16;5078920;27;52737;-49
2022/10/03 02:08:37;;;;;;;;;22.75;19.75;;;;;26.48;100.00;101510.31;5082171;27;51474;-48
2022/10/03 02:11:50;;;;;;;;;21.25;18.00;;;;;26.46;100.00;101515.88;5080463;27;51345;-46
2022/10/03 02:14:55;;;;;;;;;17.00;16.50;;;;;26.45;100.00;101517.75;5080548;27;51220;-46
2022/10/03 02:17:52;;;;;;;;;13.00;10.25;;;;;26.44;100.00;101513.25;5080009;27;51416;-48
2022/10/03 02:21:00;;;;;;;;;20.00;16.50;;;;;26.47;100.00;101511.28;5080420;27;51171;-48
2022/10/03 02:23:45;;;;;;;;;19.75;17.00;;;;;26.47;100.00;101511.28;5078353;27;51224;-48
2022/10/03 02:26:47;;;;;;;;;18.50;17.50;;;;;26.45;100.00;101514.13;5074760;27;51470;-48
2022/10/03 02:30:03;;;;;;;;;22.00;18.00;;;;;26.42;100.00;101514.28;5079325;27;51115;-48
2022/10/03 02:33:03;;;;;;;;;19.50;18.00;;;;;26.41;100.00;101517.97;5062968;27;51148;-46
2022/10/03 02:36:13;;;;;;;;;20.75;18.25;;;;;26.39;100.00;101509.91;5078565;27;51180;-47
2022/10/03 02:39:29;;;;;;;;;24.50;19.75;;;;;26.38;100.00;101521.78;5080538;27;51424;-45
2022/10/03 02:42:42;;;;;;;;;25.00;22.75;;;;;26.37;100.00;101530.94;5078303;27;50994;-45
2022/10/03 02:45:47;;;;;;;;;18.50;18.50;;;;;26.37;100.00;101525.47;5046274;27;51530;-48
2022/10/03 02:48:41;;;;;;;;;20.50;19.00;;;;;26.36;100.00;101526.44;5078610;27;51241;-44
2022/10/03 02:51:26;;;;;;;;;23.00;19.25;;;;;26.37;100.00;101530.06;5073469;27;51601;-47
2022/10/03 02:54:35;;;;;;;;;23.00;18.50;;;;;26.37;100.00;101536.38;5079428;27;51200;-46
2022/10/03 02:57:33;;;;;;;;;20.00;18.75;;;;;26.35;100.00;101538.31;5079860;27;51371;-48
2022/10/03 03:00:41;;;;;;;;;20.75;18.00;;;;;26.36;100.00;101539.22;5080751;27;51230;-45
2022/10/03 03:04:04;;;;;;;;;24.00;19.00;;;;;26.34;100.00;101541.16;5078223;27;51611;-46
2022/10/03 03:07:27;;;;;;;;;23.25;19.50;;;;;26.34;100.00;101542.03;5080648;27;51110;-45
2022/10/03 03:10:27;;;;;;;;;24.50;21.00;;;;;26.33;100.00;101548.47;5081967;27;50994;-45
2022/10/03 03:14:00;;;;;;;;;24.50;20.25;;;;;26.33;100.00;101559.38;5078695;27;51567;-45
2022/10/03 03:16:53;;;;;;;;;20.25;19.50;;;;;26.32;100.00;101557.63;5063015;27;51926;-47
2022/10/03 03:19:38;;;;;;;;;26.25;23.75;;;;;26.32;100.00;101565.81;5080901;27;51190;-45
2022/10/03 03:22:44;;;;;;;;;26.00;21.25;;;;;26.34;100.00;101566.59;5079226;27;51129;-46
2022/10/03 03:25:52;;;;;;;;;23.00;21.25;;;;;26.34;100.00;101565.69;5076659;27;51548;-46
2022/10/03 03:28:39;;;;;;;;;21.25;18.25;;;;;26.33;100.00;101569.41;5090410;27;51413;-48
2022/10/03 03:31:35;;;;;;;;;25.50;21.50;;;;;26.30;100.00;101557.69;5078668;27;51227;-46
2022/10/03 03:34:28;;;;;;;;;25.00;18.25;;;;;26.36;100.00;101574.69;5077282;27;51238;-47
2022/10/03 03:37:38;;;;;;;;;22.25;19.00;;;;;26.36;100.00;101574.69;5078988;27;51128;-46
2022/10/03 03:41:00;;;;;;;;;24.00;21.00;;;;;26.35;100.00;101562.88;5079078;27;51693;-46
2022/10/03 03:44:05;;;;;;;;;26.25;23.25;;;;;26.35;100.00;101567.47;5072506;27;51276;-45
2022/10/03 03:47:21;;;;;;;;;26.50;22.75;;;;;26.34;100.00;101571.16;5087853;27;51066;-46
2022/10/03 03:50:23;;;;;;;;;23.75;20.00;;;;;26.34;100.00;101569.31;5078125;27;51164;-45
2022/10/03 03:53:32;;;;;;;;;24.00;23.50;;;;;26.36;100.00;101577.41;5071868;27;51579;-46
2022/10/03 03:56:35;;;;;;;;;30.25;28.75;;;;;26.37;100.00;101576.44;5076881;27;51389;-46
2022/10/03 03:59:46;;;;;;;;;24.50;24.00;;;;;26.35;100.00;101579.25;5075811;27;51136;-49
2022/10/03 04:02:39;;;;;;;;;26.25;22.50;;;;;26.33;100.00;101574.84;5072914;27;51067;-45
2022/10/03 04:05:29;;;;;;;;;26.50;20.50;;;;;26.30;100.00;101575.91;5079332;27;51110;-48
2022/10/03 04:08:22;;;;;;;;;19.50;19.50;;;;;26.28;100.00;101581.47;5079553;27;51467;-46
2022/10/03 04:11:22;;;;;;;;;27.00;22.75;;;;;26.28;100.00;101591.47;5076650;27;51428;-45
2022/10/03 04:14:37;;;;;;;;;21.50;20.50;;;;;26.27;100.00;101585.16;5075732;27;51298;-46
2022/10/03 04:20:54;;;;;;;;;23.75;21.75;;;;;26.25;100.00;101591.66;5077601;27;51083;-46
2022/10/03 04:24:01;;;;;;;;;25.50;22.50;;;;;26.23;100.00;101586.28;5080071;27;51109;-45
2022/10/03 04:26:52;;;;;;;;;22.00;19.50;;;;;26.22;100.00;101581.78;5074211;27;51078;-45
2022/10/03 04:29:55;;;;;;;;;25.00;22.25;;;;;26.23;100.00;101579.97;5078049;27;51610;-44
2022/10/03 04:33:01;;;;;;;;;25.75;23.25;;;;;26.24;100.00;101595.38;5075849;27;51459;-47
2022/10/03 04:36:04;;;;;;;;;29.25;25.75;;;;;26.25;100.00;101600.72;5072072;27;51581;-44
2022/10/03 04:39:30;;;;;;;;;63.50;48.75;;;;;26.24;100.00;101598.09;5075906;27;51247;-46
2022/10/03 04:42:26;;;;;;;;;45.50;35.25;;;;;26.23;100.00;101602.66;5064868;27;51192;-47
2022/10/03 04:45:12;;;;;;;;;53.00;41.50;;;;;26.23;100.00;101605.38;5078359;27;51424;-45
2022/10/03 04:48:27;;;;;;;;;44.00;35.00;;;;;26.23;100.00;101607.25;5077028;27;51742;-47
2022/10/03 04:51:30;;;;;;;;;47.25;38.25;;;;;26.23;100.00;101616.28;5075020;27;51080;-45
2022/10/03 04:54:23;;;;;;;;;46.00;35.75;;;;;26.17;100.00;101608.47;5074495;27;51155;-46
2022/10/03 04:57:31;;;;;;;;;30.50;27.50;;;;;26.25;100.00;101627.09;5071774;27;51121;-47
2022/10/03 05:00:32;;;;;;;;;31.50;28.00;;;;;26.26;100.00;101629.78;5076758;27;51094;-45
2022/10/03 05:03:42;;;;;;;;;32.75;29.00;;;;;26.22;100.00;101619.97;5073603;27;51957;-45
2022/10/03 05:07:06;;;;;;;;;40.75;35.50;;;;;26.29;100.00;101628.72;5073572;27;51096;-45
2022/10/03 05:09:57;;;;;;;;;38.00;32.00;;;;;26.31;100.00;101626.78;5076236;27;51143;-49
2022/10/03 05:13:04;;;;;;;;;35.50;30.75;;;;;26.33;100.00;101624.84;5077935;27;51479;-47
2022/10/03 05:16:07;;;;;;;;;32.75;29.00;;;;;26.34;100.00;101620.25;5077016;27;51521;-45
2022/10/03 05:19:14;;;;;;;;;27.00;27.00;;;;;26.34;100.00;101623.00;5071846;27;51119;-46
2022/10/03 05:22:07;;;;;;;;;29.00;24.00;;;;;26.33;100.00;101619.41;5076157;27;51152;-49
2022/10/03 05:25:21;;;;;;;;;35.25;28.25;;;;;26.35;100.00;101627.50;5062631;28;51145;-46
2022/10/03 05:28:22;;;;;;;;;30.25;29.00;;;;;26.36;100.00;101626.53;5062828;27;51194;-44
2022/10/03 05:31:47;;;;;;;;;27.00;25.75;;;;;26.36;100.00;101621.94;5078081;27;51593;-46
2022/10/03 05:34:50;;;;;;;;;32.25;30.25;;;;;26.38;100.00;101621.88;5080862;27;51086;-46
2022/10/03 05:37:53;;;;;;;;;30.25;27.00;;;;;26.38;100.00;101627.31;5077912;27;51062;-45
2022/10/03 05:40:49;;;;;;;;;33.75;30.00;;;;;26.38;100.00;101621.88;5076256;27;51474;-46
2022/10/03 05:44:00;;;;;;;;;39.75;30.00;;;;;26.38;100.00;101614.53;5077501;27;51528;-46
2022/10/03 05:47:00;;;;;;;;;37.75;30.00;;;;;26.40;100.00;101622.66;5080602;27;51184;-46
2022/10/03 05:49:54;;;;;;;;;31.25;30.00;;;;;26.43;100.00;101627.94;5079786;27;51128;-45
2022/10/03 05:52:52;;;;;;;;;31.25;25.50;;;;;26.49;100.00;101634.88;5082121;27;51551;-45
2022/10/03 05:55:44;;;;;;;;;27.75;25.25;;;;;26.52;100.00;101640.19;5081825;27;51123;-44
2022/10/03 05:58:41;;;;;;;;;30.75;27.50;;;;;26.56;100.00;101630.84;5081246;27;51538;-45
2022/10/03 06:01:31;;;;;;;;;28.00;24.25;;;;;26.63;100.00;101639.56;5080949;27;51124;-46
2022/10/03 06:04:45;;;;;;;;;30.50;24.00;;;;;26.70;100.00;101632.78;5081990;27;51100;-45
2022/10/03 06:07:29;;;;;;;;;29.25;24.25;;;;;26.80;100.00;101633.16;5080203;27;51426;-46
2022/10/03 06:10:32;;;;;;;;;31.75;29.75;;;;;26.88;100.00;101633.56;5078847;27;51541;-46
2022/10/03 06:13:29;;;;;;;;;35.50;28.50;;;;;26.97;100.00;101633.06;5078993;27;51084;-45
2022/10/03 06:16:32;;;;;;;;;32.00;27.00;;;;;27.08;100.00;101635.13;5080042;27;51365;-46
2022/10/03 06:19:45;;;;;;;;;26.50;23.25;;;;;27.17;100.00;101637.31;5076641;27;51431;-42
2022/10/03 06:22:41;;;;;;;;;38.00;31.50;;;;;27.22;100.00;101645.25;5080496;27;51040;-40
2022/10/03 06:25:50;;;;;;;;;31.50;26.50;;;;;27.28;100.00;101650.34;5077366;27;51741;-39
2022/10/03 06:28:57;;;;;;;;;39.75;32.25;;;;;27.36;100.00;101653.50;5079450;27;51308;-41
2022/10/03 06:32:19;;;;;;;;;33.50;28.50;;;;;27.46;100.00;101661.16;5082615;27;51116;-42
2022/10/03 06:35:34;;;;;;;;;34.00;29.50;;;;;27.56;100.00;101664.25;5082053;27;51571;-42
2022/10/03 06:38:21;;;;;;;;;40.00;32.00;;;;;27.71;100.00;101667.88;5081439;27;51144;-42
2022/10/03 06:41:28;;;;;;;;;37.50;30.75;;;;;27.81;100.00;101664.47;5082192;27;51135;-40
2022/10/03 06:44:22;;;;;;;;;45.50;33.75;;;;;27.96;100.00;101676.31;5080866;27;51148;-41
2022/10/03 06:47:27;;;;;;;;;37.00;32.50;;;;;28.12;100.00;101675.38;5081308;27;51192;-39
2022/10/03 06:50:37;;;;;;;;;38.25;31.50;;;;;28.28;100.00;101670.69;5082068;27;51184;-41
2022/10/03 06:53:34;;;;;;;;;30.50;30.00;;;;;28.45;100.00;101683.28;5071306;27;52419;-40
2022/10/03 06:56:45;;;;;;;;;22.00;20.50;;;;;28.66;100.00;101684.72;5081010;27;51335;-40
2022/10/03 06:59:45;;;;;;;;;30.50;27.25;;;;;28.86;100.00;101681.59;5080091;27;51486;-42
2022/10/03 07:02:38;;;;;;;;;33.00;27.75;;;;;29.07;100.00;101694.84;5080897;27;51421;-41
2022/10/03 07:05:35;;;;;;;;;31.50;28.75;;;;;29.29;100.00;101685.16;5081558;27;51140;-41
2022/10/03 07:08:58;;;;;;;;;33.25;30.00;;;;;29.53;100.00;101683.47;5080789;27;51171;-42
2022/10/03 07:12:42;;;;;;;;;36.25;31.75;;;;;29.81;100.00;101676.06;5080160;27;51134;-42
2022/10/03 07:15:33;;;;;;;;;31.25;29.75;;;;;30.16;100.00;101679.19;5013977;28;51285;-39
2022/10/03 07:18:23;;;;;;;;;19.25;16.00;;;;;30.44;100.00;101678.03;5009949;28;51144;-40
2022/10/03 07:21:31;;;;;;;;;32.75;27.25;;;;;30.81;100.00;101672.59;5068063;27;51267;-40
2022/10/03 07:24:53;;;;;;;;;31.00;24.50;;;;;31.20;100.00;101665.09;5079335;27;51423;-39
2022/10/03 07:28:05;;;;;;;;;21.50;20.25;;;;;31.77;100.00;101662.56;5080209;27;51138;-41
2022/10/03 07:31:47;;;;;;;;;24.00;20.00;;;;;32.50;100.00;101653.97;5068756;27;51338;-40
2022/10/03 07:34:53;;;;;;;;;22.25;17.50;;;;;33.20;100.00;101635.25;5050990;28;51158;-39
2022/10/03 07:41:59;;;;;;;;;17.00;16.00;;;;;34.07;100.00;101643.41;5079929;27;51169;-39
2022/10/03 07:45:22;;;;;;;;;18.25;17.50;;;;;34.92;100.00;101627.44;5080960;27;51544;-40
2022/10/03 07:49:00;;;;;;;;;18.00;16.00;;;;;35.54;100.00;101621.59;5080791;27;51125;-40
2022/10/03 07:52:11;;;;;;;;;24.25;21.00;;;;;36.30;100.00;101619.75;5057921;27;51422;-41
2022/10/03 07:55:29;;;;;;;;;18.00;16.00;;;;;37.36;100.00;101621.91;5075130;27;51129;-40
2022/10/03 07:58:33;;;;;;;;;11.50;10.00;;;;;38.99;100.00;101609.19;5070334;27;51423;-41
2022/10/03 08:01:35;;;;;;;;;12.00;10.75;;;;;39.60;100.00;101608.84;5073015;27;51197;-41
2022/10/03 08:04:43;;;;;;;;;12.00;9.00;;;;;39.81;100.00;101603.59;5076974;27;51442;-39
2022/10/03 08:07:51;;;;;;;;;8.00;6.25;;;;;40.37;100.00;101599.03;5077495;27;51069;-41
2022/10/03 08:11:13;;;;;;;;;11.00;8.50;;;;;41.29;100.00;101601.03;5071836;27;51257;-40
2022/10/03 08:14:17;;;;;;;;;6.50;5.50;;;;;42.78;100.00;101598.41;5074400;27;51540;-41
2022/10/03 08:17:38;;;;;;;;;9.00;7.50;;;;;45.05;100.00;101589.63;5072584;27;51110;-41
2022/10/03 08:20:45;;;;;;;;;17.00;17.00;;;;;46.95;100.00;101592.50;5076193;27;51594;-40
2022/10/03 08:23:56;;;;;;;;;15.75;14.50;;;;;47.09;100.00;101600.84;5075457;27;51242;-41
2022/10/03 08:27:19;;;;;;;;;11.75;11.75;;;;;46.59;100.00;101598.78;5075499;27;51203;-39
2022/10/03 08:30:08;;;;;;;;;15.00;13.25;;;;;45.35;100.00;101597.63;5073336;27;51234;-42
2022/10/03 08:33:31;;;;;;;;;7.50;7.50;;;;;43.83;100.00;101598.66;5077108;27;51169;-41
2022/10/03 08:36:44;;;;;;;;;6.50;6.00;;;;;41.61;100.00;101587.81;5076541;27;51507;-40
2022/10/03 08:43:47;;;;;;;;;6.75;6.75;;;;;38.33;100.00;101598.72;5079526;27;51417;-41
2022/10/03 08:46:54;;;;;;;;;8.00;6.00;;;;;37.52;100.00;101599.00;5078844;27;51120;-40
2022/10/03 08:49:44;;;;;;;;;7.00;5.75;;;;;36.90;100.00;101588.75;5078041;27;51281;-40
2022/10/03 08:52:32;;;;;;;;;12.75;10.00;;;;;36.25;100.00;101592.50;5078143;27;51226;-40
2022/10/03 08:55:35;;;;;;;;;6.25;5.75;;;;;35.84;100.00;101597.47;5076034;27;51108;-41
2022/10/03 08:58:38;;;;;;;;;7.75;7.00;;;;;35.51;100.00;101591.44;5078703;27;51185;-42
2022/10/03 09:01:37;;;;;;;;;9.75;8.75;;;;;35.33;100.00;101603.25;5076609;27;51470;-41
2022/10/03 09:04:21;;;;;;;;;8.75;8.25;;;;;35.12;100.00;101605.31;5080366;27;51199;-40
2022/10/03 09:07:28;;;;;;;;;7.50;7.50;;;;;35.06;100.00;101602.09;5079585;28;51122;-41
2022/10/03 09:10:54;;;;;;;;;5.50;5.50;;;;;34.83;100.00;101617.19;5077915;27;51514;-41
2022/10/03 09:13:47;;;;;;;;;7.00;4.00;;;;;34.67;100.00;101626.94;5067896;27;51231;-41
2022/10/03 09:16:51;;;;;;;;;4.00;2.75;;;;;34.50;100.00;101613.81;5075594;28;51397;-43
2022/10/03 09:19:57;;;;;;;;;3.50;3.50;;;;;34.32;100.00;101613.59;5075586;27;51154;-40
2022/10/03 09:22:57;;;;;;;;;4.50;2.75;;;;;34.10;100.00;101613.63;5077232;27;51038;-40
2022/10/03 09:26:10;;;;;;;;;5.75;3.25;;;;;33.88;100.00;101614.72;5077368;27;51205;-39
2022/10/03 09:29:21;;;;;;;;;4.50;4.50;;;;;33.61;100.00;101610.59;5074563;27;51358;-39
2022/10/03 09:32:46;;;;;;;;;2.50;2.50;;;;;33.50;100.00;101600.53;5075591;27;51187;-42
2022/10/03 09:35:46;;;;;;;;;5.75;3.50;;;;;33.52;100.00;101612.31;5042715;28;51106;-40
2022/10/03 09:38:33;;;;;;;;;6.75;3.75;;;;;33.53;100.00;101603.03;5075884;27;51141;-43
2022/10/03 09:41:27;;;;;;;;;8.50;4.25;;;;;33.66;100.00;101589.00;5079078;28;51161;-41
2022/10/03 09:44:26;;;;;;;;;6.00;5.00;;;;;33.74;100.00;101591.09;5077721;28;51398;-39
2022/10/03 09:47:34;;;;;;;;;10.25;6.00;;;;;34.01;100.00;101573.06;5077371;27;51299;-39
2022/10/03 09:50:52;;;;;;;;;7.00;5.50;;;;;34.08;100.00;101568.72;5077383;27;51236;-41
2022/10/03 09:54:09;;;;;;;;;8.75;6.00;;;;;33.99;100.00;101561.28;5077470;28;51114;-38
2022/10/03 09:57:13;;;;;;;;;8.00;6.50;;;;;33.83;100.00;101562.66;5077429;27;51425;-40
2022/10/03 10:00:16;;;;;;;;;7.00;5.00;;;;;33.75;100.00;101551.44;5072188;27;51110;-41
2022/10/03 10:03:09;;;;;;;;;9.75;6.75;;;;;33.82;100.00;101544.34;5078931;28;51136;-40
2022/10/03 10:06:33;;;;;;;;;10.75;8.75;;;;;33.77;100.00;101548.53;5078626;28;51396;-39
2022/10/03 10:09:45;;;;;;;;;7.00;5.00;;;;;33.81;100.00;101541.72;5078888;28;51172;-41
2022/10/03 10:12:59;;;;;;;;;10.00;5.75;;;;;33.83;100.00;101537.81;5074198;28;51349;-39
2022/10/03 10:15:55;;;;;;;;;8.00;7.00;;;;;33.93;100.00;101525.97;5070515;27;51188;-40
2022/10/03 10:19:00;;;;;;;;;11.75;7.50;;;;;34.03;100.00;101513.06;5080626;27;51100;-39
2022/10/03 10:22:17;;;;;;;;;8.25;6.25;;;;;33.98;100.00;101515.34;5082233;27;51096;-41
2022/10/03 10:25:43;;;;;;;;;5.75;5.50;;;;;33.99;100.00;101520.75;5074138;27;51592;-40
2022/10/03 10:28:46;;;;;;;;;6.00;4.50;;;;;34.10;100.00;101521.66;5022773;27;51160;-40
2022/10/03 10:31:33;;;;;;;;;4.50;2.25;;;;;34.07;100.00;101520.06;5081321;27;51050;-39
2022/10/03 10:34:36;;;;;;;;;3.00;3.00;;;;;33.97;100.00;101520.00;5080597;27;51394;-40
2022/10/03 10:37:33;;;;;;;;;2.25;2.25;;;;;33.81;100.00;101517.75;5077010;27;51101;-40
2022/10/03 10:40:25;;;;;;;;;3.75;3.00;;;;;33.73;100.00;101519.44;5079724;27;51152;-40
2022/10/03 10:43:33;;;;;;;;;3.50;2.00;;;;;33.63;100.00;101519.41;5078546;27;51018;-40
2022/10/03 10:46:39;;;;;;;;;3.00;3.00;;;;;33.55;100.00;101522.84;5076377;27;51585;-41
2022/10/03 10:49:48;;;;;;;;;6.75;5.25;;;;;33.50;100.00;101525.16;5078823;27;51243;-42
2022/10/03 10:52:50;;;;;;;;;6.50;3.75;;;;;33.45;100.00;101517.28;5079227;27;52449;-40
2022/10/03 10:55:54;;;;;;;;;5.50;4.75;;;;;33.50;100.00;101522.38;5078233;27;51194;-41
2022/10/03 10:58:44;;;;;;;;;5.00;4.00;;;;;33.73;100.00;101523.09;5081621;27;51033;-39
2022/10/03 11:01:52;;;;;;;;;5.25;4.25;;;;;34.04;100.00;101525.84;5078366;27;51458;-40
2022/10/03 11:05:14;;;;;;;;;4.50;3.75;;;;;34.17;100.00;101511.78;5078684;27;51215;-40
2022/10/03 11:08:36;;;;;;;;;2.25;2.25;;;;;34.16;100.00;101493.47;5080979;27;51295;-42
2022/10/03 11:11:57;;;;;;;;;5.25;4.00;;;;;34.06;100.00;101487.03;5081597;27;51126;-39
2022/10/03 11:14:58;;;;;;;;;6.25;3.00;;;;;33.83;100.00;101482.59;5079900;27;51187;-39
2022/10/03 11:17:52;;;;;;;;;2.50;2.50;;;;;33.76;100.00;101475.88;5075505;27;51093;-41
2022/10/03 11:20:59;;;;;;;;;3.50;3.00;;;;;33.82;100.00;101467.06;5080109;27;51338;-39
2022/10/03 11:24:21;;;;;;;;;7.00;6.00;;;;;33.96;100.00;101478.75;5080372;27;51060;-40
2022/10/03 11:27:17;;;;;;;;;5.75;4.00;;;;;34.20;100.00;101480.22;5080073;27;51185;-43
2022/10/03 11:30:20;;;;;;;;;6.00;4.00;;;;;34.39;100.00;101468.34;5081127;27;51081;-42
2022/10/03 11:33:26;;;;;;;;;2.75;2.75;;;;;34.57;100.00;101455.56;5080978;27;51072;-43
2022/10/03 11:36:35;;;;;;;;;5.75;4.00;;;;;34.63;100.00;101456.88;5078918;27;51161;-38
2022/10/03 11:39:43;;;;;;;;;2.00;2.00;;;;;34.60;100.00;101438.72;5081325;27;51053;-40
2022/10/03 11:43:06;;;;;;;;;3.00;3.00;;;;;34.64;100.00;101444.81;5079815;27;51144;-41
2022/10/03 11:46:19;;;;;;;;;2.50;2.50;;;;;34.68;100.00;101437.09;5036503;28;51176;-39
2022/10/03 11:49:31;;;;;;;;;2.75;2.75;;;;;34.81;100.00;101428.50;5071847;27;51218;-42
2022/10/03 11:52:54;;;;;;;;;3.25;3.00;;;;;34.72;100.00;101422.81;5077427;27;51316;-41
2022/10/03 11:55:56;;;;;;;;;3.00;3.00;;;;;34.49;100.00;101429.72;5077530;27;51074;-40
2022/10/03 11:59:17;;;;;;;;;1.00;1.00;;;;;34.35;100.00;101428.19;5078418;27;51183;-41
2022/10/03 12:02:38;;;;;;;;;3.25;1.25;;;;;34.23;100.00;101419.19;5079271;27;51059;-40
2022/10/03 12:05:38;;;;;;;;;5.00;4.00;;;;;34.26;100.00;101421.69;5079330;27;51149;-41
2022/10/03 12:12:04;;;;;;;;;4.00;4.00;;;;;34.40;100.00;101398.28;5073965;27;51373;-42
2022/10/03 12:14:50;;;;;;;;;4.00;4.00;;;;;34.43;100.00;101406.31;5076930;27;51219;-40
2022/10/03 12:17:36;;;;;;;;;9.00;6.00;;;;;34.48;100.00;101389.28;5074465;27;51467;-41
2022/10/03 12:20:33;;;;;;;;;1.50;1.50;;;;;34.40;100.00;101385.34;5078648;27;51134;-42
2022/10/03 12:23:51;;;;;;;;;4.75;4.75;;;;;34.17;100.00;101389.41;5079110;27;51096;-40
2022/10/03 12:26:51;;;;;;;;;3.50;2.25;;;;;33.89;100.00;101387.34;5074421;27;51118;-41
2022/10/03 12:29:39;;;;;;;;;5.00;3.00;;;;;33.75;100.00;101383.09;5080427;27;51011;-40
2022/10/03 12:32:34;;;;;;;;;5.00;3.00;;;;;33.65;100.00;101374.78;5064082;27;51259;-43
2022/10/03 12:36:04;;;;;;;;;2.00;1.25;;;;;33.49;100.00;101369.78;5049810;27;51177;-39
2022/10/03 12:39:01;;;;;;;;;3.00;3.00;;;;;33.42;100.00;101367.72;5076173;27;51014;-41
2022/10/03 12:41:57;;;;;;;;;5.75;3.50;;;;;33.56;100.00;101355.44;5077313;27;51526;-41
2022/10/03 12:45:12;;;;;;;;;2.50;2.50;;;;;33.43;100.00;101348.31;5075711;27;51524;-41
2022/10/03 12:48:04;;;;;;;;;3.75;3.00;;;;;33.44;100.00;101357.44;5078343;27;51224;-41
2022/10/03 12:51:20;;;;;;;;;4.00;2.50;;;;;33.61;100.00;101345.72;5079590;27;52252;-41
2022/10/03 12:54:19;;;;;;;;;1.50;1.50;;;;;33.62;100.00;101322.63;5064888;27;51253;-41
2022/10/03 12:57:47;;;;;;;;;3.25;2.50;;;;;33.67;100.00;101325.84;5069711;27;51175;-42
2022/10/03 13:00:35;;;;;;;;;3.00;1.25;;;;;33.75;100.00;101297.53;5057407;28;51640;-41
2022/10/03 13:03:37;;;;;;;;;3.25;3.25;;;;;33.88;100.00;101301.91;5068118;27;51177;-44
2022/10/03 13:06:34;;;;;;;;;6.75;1.50;;;;;33.88;100.00;101305.56;5070806;28;51311;-40
2022/10/03 13:09:45;;;;;;;;;3.25;2.25;;;;;33.83;100.00;101297.69;5073366;28;51572;-40
2022/10/03 13:12:53;;;;;;;;;3.75;2.00;;;;;33.68;100.00;101305.50;5074138;28;51397;-40
2022/10/03 13:16:15;;;;;;;;;1.00;1.00;;;;;33.52;100.00;101292.28;5078807;28;51416;-40
2022/10/03 13:19:18;;;;;;;;;3.75;2.00;;;;;33.38;100.00;101287.16;5071870;27;51057;-42
2022/10/03 13:22:38;;;;;;;;;1.25;1.25;;;;;33.35;100.00;101285.56;5072108;28;51045;-39
2022/10/03 13:25:24;;;;;;;;;1.25;1.25;;;;;33.33;100.00;101287.59;5072488;27;51291;-41
2022/10/03 13:28:21;;;;;;;;;2.25;2.25;;;;;33.34;100.00;101280.16;5077690;27;51249;-40
2022/10/03 13:31:12;;;;;;;;;1.75;1.50;;;;;33.34;100.00;101283.81;5077815;28;51237;-39
2022/10/03 13:34:04;;;;;;;;;3.00;2.25;;;;;33.29;100.00;101276.97;5074870;27;51519;-41
2022/10/03 13:36:56;;;;;;;;;4.50;1.50;;;;;33.32;100.00;101272.03;5075972;27;51126;-40
2022/10/03 13:39:50;;;;;;;;;3.75;2.00;;;;;33.29;100.00;101264.03;5078974;28;51492;-39
2022/10/03 13:42:52;;;;;;;;;4.00;2.50;;;;;33.14;100.00;101263.56;5077206;27;51216;-40
2022/10/03 13:45:43;;;;;;;;;2.75;2.75;;;;;32.95;100.00;101264.38;5074432;28;51132;-40
2022/10/03 13:48:28;;;;;;;;;0.25;0.00;;;;;32.86;100.00;101263.34;5073808;27;51451;-41
2022/10/03 13:51:45;;;;;;;;;3.75;3.50;;;;;32.86;100.00;101260.56;5075735;27;51200;-42
2022/10/03 13:54:57;;;;;;;;;5.75;3.00;;;;;32.85;100.00;101261.59;5071542;27;51144;-39
2022/10/03 13:57:47;;;;;;;;;4.25;3.00;;;;;32.70;100.00;101255.53;5081352;27;51126;-39
2022/10/03 14:01:12;;;;;;;;;2.75;2.75;;;;;32.50;100.00;101262.81;5079726;27;52205;-38
2022/10/03 14:04:26;;;;;;;;;2.00;1.00;;;;;32.38;100.00;101266.69;5079767;27;51144;-41
2022/10/03 14:07:38;;;;;;;;;4.25;3.75;;;;;32.24;100.00;101260.53;5077145;27;51004;-39
2022/10/03 14:10:26;;;;;;;;;3.50;3.50;;;;;32.24;100.00;101257.75;5077215;27;51171;-37
2022/10/03 14:13:33;;;;;;;;;6.25;4.00;;;;;32.25;100.00;101253.13;5080913;27;51417;-38
2022/10/03 14:16:27;;;;;;;;;5.75;3.50;;;;;32.25;100.00;101247.59;5079497;27;51402;-38